Главная страница
METAR-TAF:

METAR-TAF

Аэропорты :

Bedford, Пенсильвания, США

широта: 40-05-10N, долгота: 078-30-49W, высота над уровнем моря: 354 м

Текущие метеонаблюдения

Эта сводка был подготовлена 28 минут назад, в 14:15 UTC
Штиль
Температура 0°C
Влажность 80%
Давление 1025 hPa
Видимость: 16.1 км
ясное небо

METAR: KHMZ 151415Z AUTO 00000KT 10SM CLR 00/M03 A3026 RMK AO2 T00041029

Время: 09:43 (14:43 UTC)


TAF: отсутствует

Метеонаблюдения и прогнозы для более 4000 аэропортов (сводки METAR и TAF).

Имеющиеся станции представлены на карте желтыми и красными точками.

Чтобы увидеть название станции, наведите на нее мышь.

Затем щелкните, чтобы увидеть метеонаблюдения и метеопрогнозы.

Управление картой: чтобы увеличить масштаб, щелкните зеленые кнопки с черным крестиком; чтобы уменьшить масштаб, щелкните зеленую кнопку с тире; для просмотра соседних карт щелкайте зеленые стрелки.


METAR-TAF: